createdAt,value
2023-04-01T00:01:28.709Z,1.80
2023-04-01T00:04:41.874Z,1.60
2023-04-01T00:07:41.708Z,1.50
2023-04-01T00:10:53.801Z,1.53
2023-04-01T00:14:05.728Z,1.30
2023-04-01T00:17:32.804Z,1.50
2023-04-01T00:20:32.826Z,1.30
2023-04-01T00:23:45.769Z,1.30
2023-04-01T00:26:45.811Z,1.20
2023-04-01T00:30:10.762Z,1.40
2023-04-01T00:33:23.868Z,1.10
2023-04-01T00:36:35.820Z,1.50
2023-04-01T00:39:35.864Z,1.57
2023-04-01T00:42:48.804Z,1.10
2023-04-01T00:46:00.922Z,1.30
2023-04-01T00:49:26.825Z,1.70
2023-04-01T00:52:38.856Z,1.60
2023-04-01T00:56:02.928Z,1.23
2023-04-01T00:59:14.978Z,1.23
2023-04-01T01:02:39.080Z,1.10
2023-04-01T01:06:05.950Z,1.30
2023-04-01T01:09:35.940Z,1.25
2023-04-01T01:12:50.937Z,1.00
2023-04-01T01:16:15.989Z,1.50
2023-04-01T01:19:31.018Z,1.50
2023-04-01T01:23:02.991Z,1.20
2023-04-01T01:26:24.923Z,1.26
2023-04-01T01:29:55.958Z,0.95
2023-04-01T01:33:16.035Z,1.20
2023-04-01T01:36:47.004Z,1.10
2023-04-01T01:40:11.009Z,1.20
2023-04-01T01:43:36.018Z,1.20
2023-04-01T01:47:00.046Z,1.20
2023-04-01T01:50:25.087Z,1.10
2023-04-01T01:53:54.056Z,1.37
2023-04-01T01:57:18.102Z,1.30
2023-04-01T02:00:46.120Z,1.15
2023-04-01T02:04:10.147Z,1.20
2023-04-01T02:07:25.111Z,1.33
2023-04-01T02:10:52.145Z,1.15
2023-04-01T02:14:16.139Z,1.40
2023-04-01T02:17:43.186Z,1.57
2023-04-01T02:20:55.162Z,1.50
2023-04-01T02:24:19.158Z,1.30
2023-04-01T02:27:33.127Z,1.30
2023-04-01T02:30:57.225Z,1.30
2023-04-01T02:34:21.142Z,1.10
2023-04-01T02:37:34.347Z,1.70
2023-04-01T02:41:06.182Z,1.60
2023-04-01T02:44:20.185Z,1.37
2023-04-01T02:47:32.243Z,1.07
2023-04-01T02:50:44.295Z,1.70
2023-04-01T02:53:56.302Z,1.60
2023-04-01T02:57:08.326Z,1.40
2023-04-01T03:00:36.343Z,1.30
2023-04-01T03:03:36.364Z,1.57
2023-04-01T03:06:48.292Z,1.40
2023-04-01T03:09:48.311Z,1.40
2023-04-01T03:13:12.263Z,1.73
2023-04-01T03:16:38.302Z,1.60
2023-04-01T03:19:51.358Z,1.50
2023-04-01T03:23:03.329Z,1.50
2023-04-01T03:26:18.308Z,1.60
2023-04-01T03:29:30.366Z,1.30
2023-04-01T03:32:59.367Z,1.30
2023-04-01T03:36:02.448Z,1.43
2023-04-01T03:39:31.419Z,1.60
2023-04-01T03:42:43.457Z,1.53
2023-04-01T03:46:11.473Z,1.10
2023-04-01T03:49:25.390Z,1.57
2023-04-01T03:52:37.450Z,1.60
2023-04-01T03:56:01.427Z,1.47
2023-04-01T03:59:27.398Z,1.10
2023-04-01T04:02:39.580Z,1.50
2023-04-01T04:06:12.488Z,1.90
2023-04-01T04:09:24.510Z,1.40
2023-04-01T04:12:36.545Z,1.50
2023-04-01T04:15:48.538Z,1.45
2023-04-01T04:19:01.551Z,1.40
2023-04-01T04:22:27.596Z,1.67
2023-04-01T04:25:40.561Z,1.43
2023-04-01T04:28:52.598Z,1.30
2023-04-01T04:32:05.587Z,1.40
2023-04-01T04:35:18.534Z,1.40
2023-04-01T04:38:46.648Z,1.00
2023-04-01T04:42:01.576Z,1.37
2023-04-01T04:45:13.586Z,1.13
2023-04-01T04:48:37.623Z,1.57
2023-04-01T04:51:49.670Z,1.67
2023-04-01T04:55:15.712Z,1.70
2023-04-01T04:58:43.728Z,1.77
2023-04-01T05:01:55.701Z,1.30
2023-04-01T05:05:07.637Z,1.47
2023-04-01T05:08:31.654Z,1.50
2023-04-01T05:12:00.742Z,1.30
2023-04-01T05:15:13.728Z,1.77
2023-04-01T05:18:26.737Z,1.60
2023-04-01T05:21:39.744Z,1.30
2023-04-01T05:24:54.674Z,1.80
2023-04-01T05:28:20.766Z,1.70
2023-04-01T05:31:35.704Z,1.70
2023-04-01T05:34:35.742Z,2.03
2023-04-01T05:38:00.743Z,2.00
2023-04-01T05:41:24.808Z,2.10
2023-04-01T05:44:51.767Z,3.93
2023-04-01T05:48:03.761Z,2.30
2023-04-01T05:51:28.773Z,3.13
2023-04-01T05:54:40.824Z,4.23
2023-04-01T05:57:52.849Z,4.47
2023-04-01T06:01:18.854Z,3.50
2023-04-01T06:04:42.905Z,3.70
2023-04-01T06:07:48.893Z,4.00
2023-04-01T06:11:18.909Z,3.80
2023-04-01T06:14:44.876Z,4.23
2023-04-01T06:18:19.928Z,3.65
2023-04-01T06:21:32.925Z,4.30
2023-04-01T06:25:01.933Z,3.40
2023-04-01T06:28:31.924Z,3.50
2023-04-01T06:31:59.996Z,4.50
2023-04-01T06:35:37.131Z,5.50
2023-04-01T06:39:03.912Z,4.27
2023-04-01T06:42:23.946Z,5.50
2023-04-01T06:45:53.006Z,5.73
2023-04-01T06:49:25.050Z,5.10
2023-04-01T06:52:52.047Z,5.37
2023-04-01T06:56:16.938Z,5.10
2023-04-01T06:59:42.037Z,5.00
2023-04-01T07:02:55.117Z,5.70
2023-04-01T07:06:19.033Z,5.57
2023-04-01T07:09:46.106Z,5.87
2023-04-01T07:13:12.020Z,5.33
2023-04-01T07:16:37.158Z,5.47
2023-04-01T07:20:02.039Z,5.37
2023-04-01T07:23:26.110Z,5.73
2023-04-01T07:26:56.300Z,5.77
2023-04-01T07:30:22.093Z,5.40
2023-04-01T07:33:48.166Z,6.15
2023-04-01T07:37:12.168Z,6.43
2023-04-01T07:40:39.109Z,7.40
2023-04-01T07:44:09.188Z,6.67
2023-04-01T07:47:39.170Z,7.30
2023-04-01T07:51:03.154Z,6.40
2023-04-01T07:54:28.253Z,6.70
2023-04-01T07:57:53.165Z,6.85
2023-04-01T08:01:20.251Z,7.30
2023-04-01T08:04:47.313Z,6.95
2023-04-01T08:08:02.401Z,7.13
2023-04-01T08:11:34.181Z,6.40
2023-04-01T08:15:01.316Z,7.45
2023-04-01T08:18:35.419Z,6.00
2023-04-01T08:21:59.249Z,5.30
2023-04-01T08:25:23.239Z,5.90
2023-04-01T08:28:48.303Z,5.10
2023-04-01T08:32:13.490Z,5.00
2023-04-01T08:35:29.796Z,4.50
2023-04-01T08:38:53.356Z,4.05
2023-04-01T08:42:26.323Z,3.65
2023-04-01T08:45:53.416Z,3.80
2023-04-01T08:49:24.333Z,3.47
2023-04-01T08:52:53.356Z,2.53
2023-04-01T08:56:21.362Z,2.90
2023-04-01T08:59:52.445Z,2.55
2023-04-01T09:03:17.456Z,2.50
2023-04-01T09:06:51.344Z,2.47
2023-04-01T09:10:31.441Z,2.10
2023-04-01T09:14:04.469Z,1.60
2023-04-01T09:17:35.481Z,1.30
2023-04-01T09:21:08.483Z,1.47
2023-04-01T09:24:46.419Z,1.50
2023-04-01T09:28:14.468Z,1.60
2023-04-01T09:31:43.552Z,2.00
2023-04-01T09:35:20.536Z,2.30
2023-04-01T09:38:47.484Z,2.50
2023-04-01T09:42:12.558Z,2.17
2023-04-01T09:45:40.577Z,2.60
2023-04-01T09:49:08.554Z,2.50
2023-04-01T09:52:34.533Z,2.93
2023-04-01T09:56:08.575Z,2.70
2023-04-01T09:59:36.565Z,2.70
2023-04-01T10:03:08.570Z,2.97
2023-04-01T10:06:54.580Z,2.40
2023-04-01T10:10:24.568Z,3.30
2023-04-01T10:13:56.574Z,3.20
2023-04-01T10:17:32.681Z,3.15
2023-04-01T10:21:04.604Z,2.55
2023-04-01T10:24:23.644Z,3.25
2023-04-01T10:27:52.628Z,3.30
2023-04-01T10:31:26.678Z,3.00
2023-04-01T10:34:58.695Z,3.10
2023-04-01T10:38:36.728Z,2.80
2023-04-01T10:42:16.654Z,2.70
2023-04-01T10:45:52.730Z,2.50
2023-04-01T10:49:23.679Z,2.90
2023-04-01T10:53:06.058Z,3.00
2023-04-01T10:56:40.817Z,2.97
2023-04-01T11:00:10.739Z,3.00
2023-04-01T11:03:45.966Z,2.90
2023-04-01T11:07:12.757Z,3.07
2023-04-01T11:10:52.782Z,2.50
2023-04-01T11:14:43.823Z,2.87
2023-04-01T11:18:23.843Z,2.97
2023-04-01T11:21:51.766Z,2.80
2023-04-01T11:25:34.208Z,3.20
2023-04-01T11:29:08.870Z,3.00
2023-04-01T11:32:34.910Z,3.80
2023-04-01T11:36:01.904Z,3.30
2023-04-01T11:39:28.898Z,3.60
2023-04-01T11:42:54.856Z,3.60
2023-04-01T11:46:21.989Z,3.60
2023-04-01T11:49:56.895Z,3.63
2023-04-01T11:53:38.881Z,2.95
2023-04-01T11:57:05.930Z,3.50
2023-04-01T12:00:40.970Z,2.85
2023-04-01T12:04:09.104Z,2.60
2023-04-01T12:07:23.961Z,2.90
2023-04-01T12:10:47.954Z,2.47
2023-04-01T12:14:01.897Z,2.40
2023-04-01T12:17:27.981Z,2.30
2023-04-01T12:20:46.040Z,2.25
2023-04-01T12:24:16.019Z,2.40
2023-04-01T12:27:39.029Z,2.10
2023-04-01T12:31:16.014Z,2.00
2023-04-01T12:34:48.014Z,2.00
2023-04-01T12:38:13.128Z,1.60
2023-04-01T12:41:36.031Z,1.80
2023-04-01T12:45:04.059Z,1.90
2023-04-01T12:48:18.136Z,1.90
2023-04-01T12:51:56.145Z,1.90
2023-04-01T12:55:17.422Z,1.73
2023-04-01T12:58:48.081Z,1.63
2023-04-01T13:02:09.134Z,1.60
2023-04-01T13:05:46.170Z,1.70
2023-04-01T13:09:00.174Z,1.73
2023-04-01T13:12:28.258Z,1.30
2023-04-01T13:15:46.168Z,1.80
2023-04-01T13:19:18.164Z,1.95
2023-04-01T13:22:31.234Z,1.80
2023-04-01T13:26:10.869Z,1.93
2023-04-01T13:29:09.237Z,1.90
2023-04-01T13:32:47.261Z,1.97
2023-04-01T13:36:04.286Z,1.90
2023-04-01T13:39:32.242Z,1.97
2023-04-01T13:42:56.285Z,2.10
2023-04-01T13:46:32.354Z,1.80
2023-04-01T13:49:50.249Z,1.73
2023-04-01T13:53:24.287Z,1.85
2023-04-01T13:56:40.337Z,1.50
2023-04-01T14:00:24.388Z,1.80
2023-04-01T14:04:03.403Z,1.70
2023-04-01T14:07:18.297Z,1.70
2023-04-01T14:10:47.376Z,1.80
2023-04-01T14:14:00.361Z,1.80
2023-04-01T14:17:36.315Z,1.50
2023-04-01T14:20:51.398Z,1.40
2023-04-01T14:24:21.380Z,1.85
2023-04-01T14:27:37.441Z,1.80
2023-04-01T14:31:04.206Z,1.90
2023-04-01T14:34:17.364Z,1.90
2023-04-01T14:37:50.465Z,2.00
2023-04-01T14:41:09.442Z,2.10
2023-04-01T14:44:39.502Z,2.00
2023-04-01T14:47:56.435Z,1.80
2023-04-01T14:51:20.436Z,1.83
2023-04-01T14:54:36.483Z,2.33
2023-04-01T14:58:03.472Z,1.90
2023-04-01T15:01:20.586Z,2.65
2023-04-01T15:04:48.543Z,2.30
2023-04-01T15:08:04.512Z,2.10
2023-04-01T15:11:44.579Z,1.90
2023-04-01T15:15:01.485Z,1.70
2023-04-01T15:18:29.618Z,2.00
2023-04-01T15:21:44.840Z,1.70
2023-04-01T15:25:11.548Z,1.97
2023-04-01T15:28:31.614Z,2.10
2023-04-01T15:31:57.618Z,1.43
2023-04-01T15:35:10.554Z,1.80
2023-04-01T15:38:36.680Z,1.60
2023-04-01T15:41:48.617Z,1.40
2023-04-01T15:45:15.663Z,1.50
2023-04-01T15:48:27.622Z,1.50
2023-04-01T15:51:54.642Z,1.60
2023-04-01T15:55:19.751Z,1.90
2023-04-01T15:58:47.677Z,1.20
2023-04-01T16:02:02.745Z,1.30
2023-04-01T16:05:27.872Z,1.80
2023-04-01T16:08:52.755Z,1.40
2023-04-01T16:12:17.663Z,1.07
2023-04-01T16:15:33.085Z,1.37
2023-04-01T16:19:03.714Z,1.03
2023-04-01T16:22:18.700Z,1.00
2023-04-01T16:25:44.689Z,1.10
2023-04-01T16:28:56.775Z,0.90
2023-04-01T16:32:20.796Z,1.30
2023-04-01T16:35:46.848Z,1.20
2023-04-01T16:39:11.815Z,1.20
2023-04-01T16:42:27.759Z,1.20
2023-04-01T16:45:59.883Z,1.10
2023-04-01T16:49:18.789Z,1.50
2023-04-01T16:52:43.816Z,2.43
2023-04-01T16:56:01.869Z,1.75
2023-04-01T16:59:25.929Z,2.20
2023-04-01T17:02:50.966Z,1.93
2023-04-01T17:06:15.853Z,1.60
2023-04-01T17:09:31.960Z,1.55
2023-04-01T17:12:57.930Z,1.60
2023-04-01T17:16:15.980Z,1.83
2023-04-01T17:19:44.949Z,1.90
2023-04-01T17:22:59.977Z,1.90
2023-04-01T17:26:28.913Z,2.03
2023-04-01T17:29:40.953Z,2.23
2023-04-01T17:33:06.110Z,1.90
2023-04-01T17:36:19.917Z,2.20
2023-04-01T17:39:49.938Z,1.80
2023-04-01T17:43:05.051Z,2.23
2023-04-01T17:46:30.038Z,2.50
2023-04-01T17:49:45.973Z,2.40
2023-04-01T17:53:10.036Z,2.30
2023-04-01T17:56:29.078Z,2.80
2023-04-01T17:59:59.073Z,2.40
2023-04-01T18:03:12.434Z,2.70
2023-04-01T18:06:37.201Z,2.40
2023-04-01T18:09:50.114Z,2.57
2023-04-01T18:13:19.134Z,2.50
2023-04-01T18:16:44.278Z,2.73
2023-04-01T18:20:09.142Z,2.90
2023-04-01T18:23:21.114Z,2.70
2023-04-01T18:26:46.218Z,2.70
2023-04-01T18:30:00.136Z,2.45
2023-04-01T18:33:27.142Z,3.13
2023-04-01T18:36:41.179Z,2.70
2023-04-01T18:40:05.222Z,2.70
2023-04-01T18:43:19.238Z,3.03
2023-04-01T18:46:43.194Z,3.00
2023-04-01T18:50:01.166Z,3.30
2023-04-01T18:53:25.230Z,3.75
2023-04-01T18:56:37.265Z,3.30
2023-04-01T19:00:05.249Z,3.00
2023-04-01T19:03:17.306Z,3.40
2023-04-01T19:06:47.244Z,3.73
2023-04-01T19:09:59.304Z,3.05
2023-04-01T19:13:35.281Z,3.00
2023-04-01T19:16:49.286Z,2.65
2023-04-01T19:20:15.320Z,3.73
2023-04-01T19:23:44.386Z,3.50
2023-04-01T19:27:14.296Z,3.40
2023-04-01T19:30:35.535Z,3.50
2023-04-01T19:34:03.324Z,3.50
2023-04-01T19:37:15.453Z,3.40
2023-04-01T19:40:46.340Z,3.40
2023-04-01T19:44:04.348Z,3.50
2023-04-01T19:47:33.466Z,2.83
2023-04-01T19:50:49.338Z,3.20
2023-04-01T19:54:13.399Z,3.55
2023-04-01T19:57:28.458Z,3.53
2023-04-01T20:00:53.400Z,3.13
2023-04-01T20:04:18.506Z,3.93
2023-04-01T20:07:30.479Z,3.63
2023-04-01T20:10:56.472Z,3.90
2023-04-01T20:14:11.439Z,3.55
2023-04-01T20:17:40.523Z,3.45
2023-04-01T20:20:52.451Z,3.50
2023-04-01T20:24:16.500Z,3.27
2023-04-01T20:27:29.529Z,3.73
2023-04-01T20:31:06.600Z,3.65
2023-04-01T20:34:29.497Z,3.60
2023-04-01T20:37:58.599Z,3.87
2023-04-01T20:41:10.592Z,3.77
2023-04-01T20:44:35.623Z,3.53
2023-04-01T20:47:49.560Z,3.93
2023-04-01T20:51:14.585Z,3.77
2023-04-01T20:54:32.565Z,3.80
2023-04-01T20:57:57.597Z,3.73
2023-04-01T21:01:11.673Z,4.00
2023-04-01T21:04:42.683Z,3.67
2023-04-01T21:07:54.621Z,3.13
2023-04-01T21:11:23.620Z,3.97
2023-04-01T21:14:54.742Z,4.07
2023-04-01T21:18:24.609Z,4.27
2023-04-01T21:21:43.671Z,4.50
2023-04-01T21:25:15.699Z,4.23
2023-04-01T21:28:33.728Z,4.23
2023-04-01T21:32:01.783Z,4.10
2023-04-01T21:35:18.851Z,4.40
2023-04-01T21:38:48.724Z,4.83
2023-04-01T21:42:13.773Z,4.90
2023-04-01T21:45:40.783Z,4.10
2023-04-01T21:48:59.810Z,4.40
2023-04-01T21:52:31.772Z,3.87
2023-04-01T21:55:56.774Z,4.23
2023-04-01T21:59:39.808Z,4.47
2023-04-01T22:02:57.817Z,3.70
2023-04-01T22:06:30.822Z,4.10
2023-04-01T22:09:43.783Z,4.57
2023-04-01T22:13:09.787Z,4.10
2023-04-01T22:16:25.932Z,4.23
2023-04-01T22:19:50.814Z,3.70
2023-04-01T22:23:04.910Z,4.63
2023-04-01T22:26:28.929Z,4.17
2023-04-01T22:29:43.130Z,4.07
2023-04-01T22:33:10.007Z,3.90
2023-04-01T22:36:22.933Z,4.40
2023-04-01T22:39:49.903Z,3.83
2023-04-01T22:43:06.970Z,4.30
2023-04-01T22:46:39.975Z,3.87
2023-04-01T22:49:51.997Z,4.03
2023-04-01T22:53:15.920Z,4.13
2023-04-01T22:56:28.988Z,4.30
2023-04-01T22:59:54.008Z,3.97
2023-04-01T23:03:10.994Z,5.20
2023-04-01T23:06:36.962Z,3.90
2023-04-01T23:09:48.960Z,4.40
2023-04-01T23:13:15.987Z,4.23
2023-04-01T23:16:28.104Z,4.23
2023-04-01T23:19:54.017Z,3.60
2023-04-01T23:23:07.103Z,3.90
2023-04-01T23:26:32.056Z,4.20
2023-04-01T23:29:44.005Z,3.70
2023-04-01T23:32:59.396Z,3.90
2023-04-01T23:36:15.202Z,3.73
2023-04-01T23:39:41.193Z,3.93
2023-04-01T23:42:53.083Z,3.67
2023-04-01T23:46:23.221Z,3.80
2023-04-01T23:49:35.205Z,4.27
2023-04-01T23:53:04.137Z,3.90
2023-04-01T23:56:16.149Z,4.00
2023-04-01T23:59:41.229Z,4.30
